Time;durP1;ratioP1;P1;durP2;ratioP2;P2;SDS_P1;SDS_P2;PMS_P1;PMS_P2;Temp;Humidity;BMP_temperature;BMP_pressure;BME280_temperature;BME280_humidity;BME280_pressure;Samples;Min_cycle;Max_cycle;Signal;HPM_P1;HPM_P2
2021/04/01 00:00:21;;;;;;;42.10;30.65;;;;;;;12.50;79.76;100094.23;1728988;83;21426;-64
2021/04/01 00:02:51;;;;;;;47.33;30.45;;;;;;;12.45;79.80;100093.64;1750244;81;21666;-66
2021/04/01 00:05:22;;;;;;;46.23;31.07;;;;;;;12.42;79.97;100090.64;1744144;81;21190;-64
2021/04/01 00:07:50;;;;;;;49.63;32.73;;;;;;;12.40;80.13;100083.32;1753259;81;21177;-66
2021/04/01 00:10:20;;;;;;;44.53;32.75;;;;;;;12.41;80.32;100088.48;1734696;81;21118;-66
2021/04/01 00:12:48;;;;;;;43.30;33.60;;;;;;;12.42;80.28;100083.34;1733618;81;21204;-67
2021/04/01 00:15:18;;;;;;;48.85;34.75;;;;;;;12.43;80.20;100073.36;1722057;81;21031;-66
2021/04/01 00:17:46;;;;;;;41.60;30.32;;;;;;;12.40;80.15;100071.18;1733000;81;21185;-65
2021/04/01 00:20:15;;;;;;;48.17;33.40;;;;;;;12.36;80.21;100070.06;1724010;83;21169;-64
2021/04/01 00:22:43;;;;;;;37.95;28.67;;;;;;;12.30;80.34;100067.02;1747830;81;21165;-63
2021/04/01 00:25:14;;;;;;;53.90;36.85;;;;;;;12.25;80.58;100063.72;1754284;81;21365;-66
2021/04/01 00:27:43;;;;;;;49.05;36.13;;;;;;;12.15;80.74;100052.28;1754261;81;21126;-67
2021/04/01 00:30:14;;;;;;;50.95;35.55;;;;;;;12.10;81.06;100046.00;1727399;81;21129;-65
2021/04/01 00:32:44;;;;;;;48.35;35.40;;;;;;;12.10;81.23;100055.44;1747540;81;21130;-66
2021/04/01 00:35:14;;;;;;;46.80;35.00;;;;;;;12.08;81.30;100053.02;1754258;81;21157;-66
2021/04/01 00:37:42;;;;;;;46.68;33.60;;;;;;;12.06;81.29;100048.39;1754055;81;21477;-64
2021/04/01 00:40:12;;;;;;;43.33;32.58;;;;;;;12.02;81.29;100045.92;1754628;81;21618;-64
2021/04/01 00:42:40;;;;;;;46.00;33.53;;;;;;;11.97;81.41;100040.47;1754421;81;21097;-65
2021/04/01 00:45:11;;;;;;;43.45;32.05;;;;;;;11.91;81.54;100032.55;1726413;81;21158;-65
2021/04/01 00:47:45;;;;;;;46.63;30.90;;;;;;;11.84;81.76;100030.06;1725642;81;21129;-65
2021/04/01 00:50:20;;;;;;;50.45;32.28;;;;;;;11.81;81.97;100030.54;1708038;81;21371;-65
2021/04/01 00:52:48;;;;;;;45.45;33.23;;;;;;;11.83;82.06;100032.47;1749863;81;21289;-63
2021/04/01 00:55:16;;;;;;;50.55;33.83;;;;;;;11.80;82.08;100029.72;1754285;81;21122;-61
2021/04/01 00:57:48;;;;;;;49.45;35.60;;;;;;;11.77;82.05;100025.38;1729823;81;21153;-64
2021/04/01 01:00:20;;;;;;;47.45;35.45;;;;;;;11.78;82.15;100018.92;1752185;81;21126;-65
2021/04/01 01:02:48;;;;;;;47.10;33.20;;;;;;;11.75;82.03;100014.83;1734215;81;21578;-65
2021/04/01 01:05:18;;;;;;;39.83;32.88;;;;;;;11.71;82.05;100017.72;1727612;81;21607;-65
2021/04/01 01:07:46;;;;;;;43.92;33.13;;;;;;;11.63;82.17;100019.50;1727365;83;21169;-64
2021/04/01 01:10:26;;;;;;;42.80;32.78;;;;;;;11.57;82.41;100015.09;1727398;83;21621;-65
2021/04/01 01:12:58;;;;;;;50.63;34.80;;;;;;;11.57;82.63;100015.62;1748895;81;21129;-67
2021/04/01 01:15:26;;;;;;;45.38;35.35;;;;;;;11.59;82.59;100016.20;1743199;81;21320;-64
2021/04/01 01:17:55;;;;;;;56.20;39.55;;;;;;;11.60;82.57;100009.23;1754683;81;21117;-60
2021/04/01 01:20:25;;;;;;;51.25;37.83;;;;;;;11.60;82.47;100004.38;1751409;81;21595;-64
2021/04/01 01:22:55;;;;;;;55.05;37.25;;;;;;;11.57;82.48;100004.33;1753362;81;21184;-65
2021/04/01 01:25:23;;;;;;;46.68;34.18;;;;;;;11.55;82.53;99998.38;1758080;81;21658;-65
2021/04/01 01:27:51;;;;;;;44.98;33.33;;;;;;;11.53;82.61;99994.30;1757591;81;21563;-65
2021/04/01 01:30:20;;;;;;;49.70;35.30;;;;;;;11.51;82.80;99993.75;1700369;83;21586;-63
2021/04/01 01:32:56;;;;;;;43.20;31.85;;;;;;;11.50;82.88;99992.11;1728075;81;21176;-65
2021/04/01 01:35:21;;;;;;;48.25;35.88;;;;;;;11.48;82.98;99986.96;1727504;81;21598;-64
2021/04/01 01:37:53;;;;;;;47.13;35.08;;;;;;;11.45;83.09;99986.13;1757529;81;21133;-61
2021/04/01 01:40:23;;;;;;;48.52;36.30;;;;;;;11.43;83.23;99988.77;1757453;81;21480;-63
2021/04/01 01:42:52;;;;;;;54.70;34.80;;;;;;;11.37;83.34;99983.30;1742948;81;21205;-61
2021/04/01 01:45:20;;;;;;;47.35;34.00;;;;;;;11.34;83.50;99982.46;1749395;81;21142;-62
2021/04/01 01:47:48;;;;;;;44.85;32.40;;;;;;;11.34;83.65;99982.98;1756048;81;21559;-63
2021/04/01 01:50:17;;;;;;;45.20;33.02;;;;;;;11.34;83.70;99982.46;1755938;81;21117;-62
2021/04/01 01:52:45;;;;;;;46.20;35.25;;;;;;;11.34;83.74;99982.46;1737504;81;21376;-63
2021/04/01 01:55:13;;;;;;;54.18;35.30;;;;;;;11.33;83.69;99982.17;1727299;83;21173;-62
2021/04/01 01:57:41;;;;;;;39.08;27.05;;;;;;;11.34;83.66;99981.11;1727961;81;21176;-60
2021/04/01 02:00:20;;;;;;;45.25;32.65;;;;;;;11.34;83.59;99978.95;1727398;83;21140;-62
2021/04/01 02:02:56;;;;;;;49.08;34.00;;;;;;;11.28;83.62;99978.06;1744472;81;21123;-63
2021/04/01 02:05:26;;;;;;;49.80;35.30;;;;;;;11.25;83.65;99973.70;1725848;81;21212;-62
2021/04/01 02:07:54;;;;;;;50.12;37.33;;;;;;;11.23;83.81;99966.39;1723152;83;21614;-60
2021/04/01 02:10:27;;;;;;;51.30;36.25;;;;;;;11.23;83.96;99968.55;1723193;83;20999;-62
2021/04/01 02:12:57;;;;;;;41.55;32.00;;;;;;;11.24;84.07;99964.81;1723944;81;21169;-61
2021/04/01 02:15:36;;;;;;;45.08;34.53;;;;;;;11.27;83.99;99968.91;1723426;81;21114;-61
2021/04/01 02:18:16;;;;;;;50.25;36.60;;;;;;;11.31;83.88;99962.77;1846988;76;22486;-60
2021/04/01 02:20:47;;;;;;;45.48;31.97;;;;;;;11.25;83.81;99969.66;1812191;78;20967;-61
2021/04/01 02:23:22;;;;;;;43.65;32.53;;;;;;;11.23;83.78;99967.73;1789388;79;22124;-62
2021/04/01 02:25:51;;;;;;;45.30;33.70;;;;;;;11.21;83.79;99967.19;1785343;79;21772;-64
2021/04/01 02:28:20;;;;;;;39.40;30.23;;;;;;;11.21;83.83;99964.50;1784982;80;21089;-61
2021/04/01 02:30:51;;;;;;;48.13;35.90;;;;;;;11.22;83.82;99961.53;1785000;80;21127;-61
2021/04/01 02:33:24;;;;;;;45.65;34.63;;;;;;;11.19;83.74;99957.19;1811602;79;20968;-61
2021/04/01 02:35:52;;;;;;;49.73;34.23;;;;;;;11.15;83.79;99955.53;1806265;79;22008;-63
2021/04/01 02:38:23;;;;;;;52.83;38.30;;;;;;;11.13;83.83;99959.51;1784980;80;21135;-62
2021/04/01 02:40:52;;;;;;;45.15;33.13;;;;;;;11.10;83.87;99952.76;1785006;80;20923;-62
2021/04/01 02:43:27;;;;;;;50.95;34.85;;;;;;;11.09;83.92;99952.47;1809327;79;21129;-61
2021/04/01 02:45:51;;;;;;;50.25;37.45;;;;;;;11.12;83.96;99948.48;1806344;79;21137;-61
2021/04/01 02:48:19;;;;;;;46.15;36.83;;;;;;;11.12;83.90;99957.38;1811165;79;22362;-60
2021/04/01 02:50:49;;;;;;;47.75;36.35;;;;;;;11.14;83.79;99956.58;1793353;78;21566;-61
2021/04/01 02:53:17;;;;;;;58.83;41.10;;;;;;;11.13;83.70;99953.59;1787069;79;21152;-61
2021/04/01 02:55:45;;;;;;;54.50;43.35;;;;;;;11.10;83.70;99950.06;1793474;79;21736;-63
2021/04/01 02:58:13;;;;;;;56.70;42.45;;;;;;;11.10;83.70;99958.14;1817167;78;21121;-61
2021/04/01 03:00:41;;;;;;;48.52;36.08;;;;;;;11.09;83.66;99953.00;1807243;79;21582;-63
2021/04/01 03:03:16;;;;;;;46.15;37.95;;;;;;;11.07;83.74;99953.79;1784865;80;21141;-61
2021/04/01 03:05:43;;;;;;;43.50;34.67;;;;;;;11.02;83.83;99946.45;1773641;79;21608;-62
2021/04/01 03:08:11;;;;;;;51.95;35.25;;;;;;;11.02;83.95;99944.29;1754642;80;21210;-60
2021/04/01 03:10:39;;;;;;;51.08;35.92;;;;;;;10.99;83.97;99945.58;1761714;80;21126;-62
2021/04/01 03:13:08;;;;;;;48.95;33.10;;;;;;;11.01;83.96;99947.51;1758896;80;22062;-62
2021/04/01 03:15:35;;;;;;;46.35;34.03;;;;;;;11.02;83.86;99934.34;1760074;80;21690;-62
2021/04/01 03:18:11;;;;;;;48.13;34.43;;;;;;;11.01;83.76;99934.05;1767740;81;21585;-61
2021/04/01 03:20:44;;;;;;;45.60;34.67;;;;;;;11.01;83.83;99942.66;1772337;79;21145;-62
2021/04/01 03:23:12;;;;;;;44.67;33.80;;;;;;;10.99;83.88;99936.16;1769986;81;21121;-62
2021/04/01 03:25:40;;;;;;;43.78;33.65;;;;;;;10.98;83.85;99935.91;1781189;79;21587;-60
2021/04/01 03:28:09;;;;;;;43.55;34.08;;;;;;;10.95;83.85;99935.03;1788916;79;21196;-63
2021/04/01 03:30:39;;;;;;;42.88;32.50;;;;;;;10.92;83.97;99930.15;1796114;79;21121;-64
2021/04/01 03:33:06;;;;;;;38.20;27.67;;;;;;;10.88;84.07;99932.53;1770091;80;21610;-64
2021/04/01 03:35:34;;;;;;;43.75;31.87;;;;;;;10.85;84.23;99937.56;1770877;79;21179;-64
2021/04/01 03:38:04;;;;;;;45.17;32.53;;;;;;;10.83;84.31;99928.94;1801282;79;21386;-64
2021/04/01 03:40:34;;;;;;;43.60;30.60;;;;;;;10.83;84.37;99932.45;1797710;79;21910;-64
2021/04/01 03:43:02;;;;;;;43.60;31.95;;;;;;;10.86;84.25;99928.44;1770200;80;21614;-62
2021/04/01 03:45:29;;;;;;;49.48;36.05;;;;;;;10.90;84.13;99931.73;1770190;79;21157;-64
2021/04/01 03:47:58;;;;;;;46.55;33.40;;;;;;;10.86;84.03;99930.59;1780619;79;21121;-64
2021/04/01 03:50:26;;;;;;;42.10;33.88;;;;;;;10.84;84.06;99935.40;1770959;79;21659;-65
2021/04/01 03:52:56;;;;;;;34.63;28.62;;;;;;;10.86;84.18;99927.09;1780510;79;21014;-71
2021/04/01 03:55:41;;;;;;;49.13;35.38;;;;;;;10.89;84.07;99926.59;1801403;79;21152;-63
2021/04/01 04:03:37;;;;;;;49.50;35.17;;;;;;;10.92;83.65;99920.73;1797900;78;22267;-68
2021/04/01 04:08:53;;;;;;;49.42;37.45;;;;;;;10.83;83.74;99914.95;1783729;79;25130;-62
2021/04/01 04:16:26;;;;;;;53.15;37.73;;;;;;;10.84;84.02;99915.74;1800359;79;21357;-62
2021/04/01 04:18:54;;;;;;;47.65;37.42;;;;;;;10.85;83.91;99907.97;1761365;79;21589;-66
2021/04/01 04:21:22;;;;;;;51.05;38.33;;;;;;;10.83;83.83;99907.41;1796168;79;21526;-62
2021/04/01 04:23:50;;;;;;;52.93;37.17;;;;;;;10.76;83.93;99900.84;1795606;79;21072;-63
2021/04/01 04:26:21;;;;;;;42.85;32.28;;;;;;;10.72;84.06;99901.58;1789731;79;21643;-63
2021/04/01 04:28:49;;;;;;;52.78;40.43;;;;;;;10.71;84.24;99899.95;1753188;81;22267;-62
2021/04/01 04:31:17;;;;;;;49.23;37.63;;;;;;;10.68;84.38;99897.75;1753041;81;21198;-62
2021/04/01 04:33:45;;;;;;;41.37;34.18;;;;;;;10.70;84.48;99899.66;1771328;80;21203;-64
2021/04/01 04:36:13;;;;;;;53.58;41.88;;;;;;;10.71;84.33;99896.73;1782372;80;20971;-63
2021/04/01 04:38:40;;;;;;;45.20;36.90;;;;;;;10.70;84.30;99886.20;1753369;80;22291;-63
2021/04/01 04:41:09;;;;;;;54.27;40.23;;;;;;;10.69;84.38;99899.39;1753266;81;21420;-62
2021/04/01 04:43:37;;;;;;;44.63;33.13;;;;;;;10.65;84.41;99890.98;1753201;81;21544;-62
2021/04/01 04:46:05;;;;;;;54.93;40.05;;;;;;;10.65;84.59;99889.63;1753269;80;21036;-64
2021/04/01 04:48:33;;;;;;;57.67;40.45;;;;;;;10.67;84.60;99894.25;1784325;80;21586;-64
2021/04/01 04:51:01;;;;;;;54.58;39.98;;;;;;;10.68;84.50;99886.47;1784431;80;21078;-62
2021/04/01 04:53:28;;;;;;;54.83;39.58;;;;;;;10.69;84.44;99878.69;1784374;80;22136;-63
2021/04/01 04:56:06;;;;;;;56.08;40.88;;;;;;;10.72;84.34;99883.56;1781799;80;21149;-64
2021/04/01 05:01:12;;;;;;;56.45;41.95;;;;;;;10.77;84.33;99884.99;1770622;80;21036;-63
2021/04/01 05:07:12;;;;;;;55.27;42.10;;;;;;;10.94;83.87;99880.92;1845175;76;22638;-64
2021/04/01 05:08:56;;;;;;;57.40;39.42;;;;;;;10.91;83.70;99872.82;1782965;79;21006;-62
2021/04/01 05:11:25;;;;;;;57.15;41.50;;;;;;;10.91;83.60;99873.34;1817176;79;21187;-64
2021/04/01 05:13:53;;;;;;;48.23;36.00;;;;;;;10.90;83.57;99877.09;1817117;78;21031;-63
2021/04/01 05:16:21;;;;;;;53.48;36.80;;;;;;;10.93;83.53;99867.20;1816112;79;20975;-65
2021/04/01 05:18:50;;;;;;;56.60;42.38;;;;;;;10.95;83.52;99863.72;1815791;79;21031;-64
2021/04/01 05:21:19;;;;;;;59.65;43.60;;;;;;;10.96;83.41;99862.66;1817234;79;20967;-64
2021/04/01 05:23:50;;;;;;;54.30;42.23;;;;;;;11.00;83.42;99866.48;1817132;78;21350;-63
2021/04/01 05:29:06;;;;;;;62.08;42.55;;;;;;;11.11;82.80;99866.09;1785114;80;21116;-63
2021/04/01 05:31:36;;;;;;;55.00;40.25;;;;;;;11.10;82.76;99871.19;1785272;79;21006;-62
2021/04/01 05:34:04;;;;;;;44.73;34.55;;;;;;;11.16;82.69;99863.47;1785027;79;21110;-62
2021/04/01 05:36:38;;;;;;;51.10;35.80;;;;;;;11.22;82.41;99868.65;1791782;79;21395;-64
2021/04/01 05:39:09;;;;;;;55.60;40.40;;;;;;;11.28;82.21;99870.36;1787042;79;21149;-63
2021/04/01 05:41:39;;;;;;;50.92;37.88;;;;;;;11.33;81.85;99860.99;1817172;79;20979;-62
2021/04/01 05:44:22;;;;;;;60.00;40.60;;;;;;;11.37;81.60;99860.77;1807925;78;21098;-62
2021/04/01 05:47:03;;;;;;;54.77;36.28;;;;;;;11.42;81.47;99861.89;1784671;80;21141;-63
2021/04/01 06:05:51;;;;;;;45.40;34.67;;;;;;;11.93;79.52;99847.15;1760859;80;21602;-64
2021/04/01 06:08:22;;;;;;;53.83;36.28;;;;;;;11.98;79.20;99846.67;1765480;81;21180;-64
2021/04/01 06:10:51;;;;;;;48.55;36.93;;;;;;;12.02;78.88;99846.44;1766496;79;21192;-64
2021/04/01 06:13:19;;;;;;;48.13;33.92;;;;;;;12.07;78.73;99842.44;1766957;79;21140;-64
2021/04/01 06:15:50;;;;;;;50.63;36.28;;;;;;;12.14;78.44;99839.52;1739965;81;21221;-67
2021/04/01 06:18:21;;;;;;;50.23;34.30;;;;;;;12.24;78.29;99830.17;1764932;81;21586;-63
2021/04/01 06:20:50;;;;;;;48.38;33.02;;;;;;;12.33;77.92;99828.63;1764873;81;21026;-63
2021/04/01 06:23:29;;;;;;;50.23;33.95;;;;;;;12.43;77.56;99830.05;1764840;81;21184;-65
2021/04/01 06:25:58;;;;;;;47.23;32.42;;;;;;;12.51;77.22;99829.59;1764870;81;21153;-64
2021/04/01 06:28:46;;;;;;;48.13;33.08;;;;;;;12.56;76.85;99830.16;1764995;81;21598;-65
2021/04/01 06:31:19;;;;;;;48.02;33.42;;;;;;;12.59;76.61;99830.98;1741833;79;21175;-63
2021/04/01 06:34:00;;;;;;;54.18;33.78;;;;;;;12.61;76.42;99830.98;1734781;81;21190;-65
2021/04/01 06:36:32;;;;;;;49.20;31.57;;;;;;;12.69;76.38;99835.10;1728785;83;21125;-65
2021/04/01 06:38:56;;;;;;;49.98;31.40;;;;;;;12.79;76.10;99826.26;1728533;83;21212;-62
2021/04/01 06:41:29;;;;;;;54.25;33.28;;;;;;;12.91;75.59;99820.10;1731496;81;21286;-62
2021/04/01 06:44:25;;;;;;;46.83;30.25;;;;;;;12.99;75.14;99819.63;1758879;81;21124;-64
2021/04/01 06:47:03;;;;;;;43.48;29.63;;;;;;;13.06;74.68;99816.14;1759040;81;21533;-64
2021/04/01 06:49:52;;;;;;;44.40;31.50;;;;;;;13.15;74.43;99813.23;1758992;81;21164;-68
2021/04/01 06:52:16;;;;;;;44.18;31.23;;;;;;;13.22;74.22;99823.81;1746361;81;21171;-66
2021/04/01 06:54:57;;;;;;;40.98;29.10;;;;;;;13.30;74.02;99820.59;1730768;81;21412;-63
2021/04/01 07:02:53;;;;;;;40.03;26.40;;;;;;;13.51;72.87;99814.20;1727201;83;21221;-64
2021/04/01 07:05:35;;;;;;;38.88;27.22;;;;;;;13.60;72.61;99810.42;1730684;81;21155;-65
2021/04/01 07:13:32;;;;;;;38.83;27.10;;;;;;;13.82;71.55;99799.66;1860022;77;21026;-64
2021/04/01 07:16:33;;;;;;;32.88;25.00;;;;;;;13.90;71.31;99796.98;1858207;77;21535;-64
2021/04/01 07:19:15;;;;;;;36.20;24.23;;;;;;;13.97;71.00;99790.75;1825270;78;21010;-65
2021/04/01 07:48:57;;;;;;;24.32;20.60;;;;;;;14.58;68.33;99779.94;1811056;78;21133;-64
2021/04/01 07:54:12;;;;;;;26.90;19.32;;;;;;;14.67;68.09;99786.41;1809975;79;21170;-63
2021/04/01 07:56:54;;;;;;;29.48;20.02;;;;;;;14.72;68.00;99784.48;1809811;79;21192;-64
2021/04/01 08:04:18;;;;;;;22.05;17.75;;;;;;;14.88;67.40;99768.20;1798531;78;21034;-64
2021/04/01 08:06:47;;;;;;;22.50;17.95;;;;;;;14.92;67.38;99774.14;1746961;80;21157;-65
2021/04/01 08:09:22;;;;;;;24.05;19.60;;;;;;;14.95;67.11;99757.36;1784128;80;21211;-63
2021/04/01 08:11:54;;;;;;;25.23;18.20;;;;;;;14.98;67.00;99751.38;1789959;80;21730;-63
2021/04/01 08:14:34;;;;;;;26.33;20.77;;;;;;;15.04;66.98;99748.11;1786946;80;21019;-64
2021/04/01 08:17:09;;;;;;;34.10;22.93;;;;;;;15.08;66.82;99749.98;1786743;80;21002;-64
2021/04/01 08:19:37;;;;;;;29.20;20.77;;;;;;;15.14;66.51;99746.70;1754932;80;21197;-63
2021/04/01 08:22:23;;;;;;;26.85;21.80;;;;;;;15.20;66.51;99738.25;1777806;80;21305;-64
2021/04/01 08:24:51;;;;;;;27.13;21.50;;;;;;;15.30;66.26;99729.84;1755900;81;21192;-63
2021/04/01 08:33:03;;;;;;;27.73;21.85;;;;;;;15.52;65.31;99722.95;1809128;79;21142;-65
2021/04/01 08:35:19;;;;;;;24.80;18.92;;;;;;;15.62;64.97;99715.28;1780263;80;22219;-64
2021/04/01 08:40:41;;;;;;;25.15;19.85;;;;;;;15.83;64.36;99718.09;1837112;76;22700;-62
2021/04/01 08:43:37;;;;;;;33.25;23.32;;;;;;;15.85;64.30;99709.14;1780515;80;21038;-63
2021/04/01 08:46:30;;;;;;;31.02;22.32;;;;;;;15.93;63.84;99715.84;1805029;79;22114;-64
2021/04/01 08:49:35;;;;;;;32.83;22.48;;;;;;;16.02;63.65;99708.70;1815618;79;21752;-63
2021/04/01 08:52:45;;;;;;;34.30;23.55;;;;;;;16.09;63.22;99703.23;1817245;79;20991;-63
2021/04/01 08:55:19;;;;;;;34.63;23.73;;;;;;;16.20;62.80;99713.98;1817934;79;21567;-63
2021/04/01 08:58:02;;;;;;;27.58;19.95;;;;;;;16.28;62.28;99699.78;1814698;79;21015;-65
2021/04/01 09:00:32;;;;;;;30.95;21.93;;;;;;;16.33;61.90;99684.27;1792448;79;21380;-64
2021/04/01 09:03:00;;;;;;;37.35;21.00;;;;;;;16.41;61.71;99697.20;1783796;80;21034;-62
2021/04/01 09:05:28;;;;;;;25.52;18.82;;;;;;;16.47;61.43;99687.91;1780321;80;20987;-64
2021/04/01 09:08:01;;;;;;;32.10;21.27;;;;;;;16.53;61.28;99677.26;1761543;80;21154;-63
2021/04/01 09:10:39;;;;;;;30.23;20.25;;;;;;;16.63;61.23;99673.65;1756207;80;21026;-64
2021/04/01 09:15:53;;;;;;;24.80;18.42;;;;;;;16.84;60.38;99659.24;1847149;76;22716;-63
2021/04/01 09:18:27;;;;;;;29.57;20.80;;;;;;;16.86;60.01;99661.94;1816552;79;21115;-63
2021/04/01 09:21:01;;;;;;;32.30;18.60;;;;;;;16.92;59.21;99666.77;1817130;79;21248;-64
2021/04/01 09:23:38;;;;;;;25.72;18.48;;;;;;;16.95;58.98;99656.11;1802940;78;21022;-65
2021/04/01 09:26:08;;;;;;;27.90;20.12;;;;;;;17.02;58.76;99650.33;1808223;79;21133;-63
2021/04/01 09:28:38;;;;;;;25.37;18.30;;;;;;;17.07;58.67;99654.33;1814711;79;21579;-66
2021/04/01 09:31:06;;;;;;;26.65;19.87;;;;;;;17.10;58.66;99648.30;1799083;79;21543;-65
2021/04/01 09:33:36;;;;;;;21.77;17.75;;;;;;;17.17;57.99;99647.95;1817151;78;21128;-64
2021/04/01 09:36:12;;;;;;;22.73;18.35;;;;;;;17.26;58.07;99647.53;1815936;79;20992;-64
2021/04/01 09:38:43;;;;;;;28.23;19.25;;;;;;;17.32;57.48;99636.27;1749274;81;21586;-64
2021/04/01 09:41:27;;;;;;;26.93;19.77;;;;;;;17.39;56.87;99639.98;1745559;82;21150;-65
2021/04/01 09:43:54;;;;;;;31.50;20.08;;;;;;;17.46;56.30;99639.62;1747292;81;21156;-62
2021/04/01 09:46:23;;;;;;;27.75;19.52;;;;;;;17.50;56.24;99634.66;1748327;80;21425;-64
2021/04/01 09:49:04;;;;;;;24.02;16.87;;;;;;;17.52;56.05;99635.14;1806740;79;21098;-64
2021/04/01 09:51:34;;;;;;;28.25;16.50;;;;;;;17.56;54.99;99638.88;1788691;80;21149;-62
2021/04/01 09:54:03;;;;;;;23.65;17.10;;;;;;;17.64;55.20;99624.66;1801573;79;21165;-63
2021/04/01 09:56:33;;;;;;;22.05;16.07;;;;;;;17.75;55.45;99630.16;1817234;79;21543;-66
2021/04/01 09:59:01;;;;;;;20.15;14.63;;;;;;;17.83;55.51;99620.52;1787472;79;21330;-65
2021/04/01 10:04:24;;;;;;;22.67;13.35;;;;;;;18.08;51.25;99613.81;1847077;76;22676;-65
2021/04/01 10:06:51;;;;;;;13.65;10.40;;;;;;;18.07;49.77;99627.16;1781239;79;20984;-66
2021/04/01 10:09:22;;;;;;;17.60;12.05;;;;;;;18.06;48.38;99621.46;1815003;79;22183;-65
2021/04/01 10:12:07;;;;;;;19.73;11.50;;;;;;;18.08;48.48;99607.01;1817179;79;21011;-65
2021/04/01 10:14:37;;;;;;;21.80;12.63;;;;;;;18.13;48.34;99610.41;1817203;79;20960;-66
2021/04/01 10:17:10;;;;;;;17.00;11.28;;;;;;;18.17;48.14;99609.28;1752156;80;21618;-65
2021/04/01 10:19:50;;;;;;;12.53;10.23;;;;;;;18.22;47.46;99611.33;1768319;79;21907;-64
2021/04/01 10:22:27;;;;;;;15.13;10.95;;;;;;;18.38;47.29;99596.86;1847290;76;22748;-64
2021/04/01 10:25:17;;;;;;;16.30;10.55;;;;;;;18.46;46.46;99588.55;1810939;78;21032;-66
2021/04/01 10:30:30;;;;;;;13.55;10.38;;;;;;;18.69;46.95;99584.81;1788414;79;21133;-67
2021/04/01 10:33:22;;;;;;;23.75;10.68;;;;;;;18.79;45.14;99576.42;1784950;80;21596;-67
2021/04/01 10:35:51;;;;;;;12.45;9.63;;;;;;;18.84;44.82;99581.76;1787267;79;21555;-72
2021/04/01 10:38:19;;;;;;;16.32;9.40;;;;;;;18.86;44.65;99577.34;1788271;79;20983;-66
2021/04/01 10:40:51;;;;;;;13.58;8.78;;;;;;;18.85;44.03;99586.07;1785913;79;21279;-65
2021/04/01 10:43:19;;;;;;;17.95;9.90;;;;;;;18.77;43.66;99571.82;1817070;79;21026;-65
2021/04/01 10:45:47;;;;;;;14.15;10.28;;;;;;;18.70;44.16;99563.27;1807939;79;21591;-65
2021/04/01 10:48:33;;;;;;;15.63;10.15;;;;;;;18.66;44.08;99565.78;1817084;79;21098;-65
2021/04/01 10:51:04;;;;;;;20.77;11.48;;;;;;;18.59;44.70;99559.96;1809985;79;21138;-65
2021/04/01 10:53:32;;;;;;;14.30;9.50;;;;;;;18.60;45.14;99551.23;1810010;79;21360;-65
2021/04/01 10:56:07;;;;;;;14.68;10.08;;;;;;;18.68;44.46;99545.05;1814473;79;21622;-67
2021/04/01 10:58:36;;;;;;;15.08;11.33;;;;;;;18.81;44.27;99536.58;1816933;78;21137;-63
2021/04/01 11:01:05;;;;;;;14.73;11.43;;;;;;;18.95;43.89;99537.34;1813660;79;21468;-61
2021/04/01 11:03:48;;;;;;;17.45;11.50;;;;;;;19.04;43.67;99536.29;1766485;79;21129;-65
2021/04/01 11:06:15;;;;;;;14.78;9.28;;;;;;;19.10;43.64;99521.42;1765437;80;21327;-66
2021/04/01 11:08:46;;;;;;;12.50;10.08;;;;;;;19.20;43.21;99523.10;1725072;81;21583;-64
2021/04/01 11:11:15;;;;;;;15.28;10.88;;;;;;;19.31;43.06;99512.75;1767488;80;21046;-63
2021/04/01 11:13:46;;;;;;;13.22;10.78;;;;;;;19.41;43.12;99513.30;1784968;80;21187;-64
2021/04/01 11:16:15;;;;;;;18.23;10.25;;;;;;;19.50;43.12;99505.19;1775185;80;21188;-63
2021/04/01 11:18:49;;;;;;;10.95;9.10;;;;;;;19.55;42.57;99504.50;1754662;80;21152;-62
2021/04/01 11:21:20;;;;;;;14.58;10.55;;;;;;;19.64;42.67;99492.81;1685040;81;21069;-64
2021/04/01 11:23:49;;;;;;;12.13;9.38;;;;;;;19.67;41.77;99501.17;1761691;80;21673;-63
2021/04/01 11:26:16;;;;;;;16.55;10.08;;;;;;;19.65;41.52;99503.42;1754937;80;21014;-64
2021/04/01 11:28:50;;;;;;;10.35;8.88;;;;;;;19.61;42.20;99490.17;1755213;80;21617;-63
2021/04/01 11:31:31;;;;;;;13.20;9.45;;;;;;;19.65;42.27;99488.42;1782725;80;21358;-64
2021/04/01 11:34:00;;;;;;;21.55;10.95;;;;;;;19.71;42.42;99472.72;1784303;80;21134;-65
2021/04/01 11:36:37;;;;;;;12.68;9.20;;;;;;;19.71;41.23;99477.59;1774111;79;21615;-63
2021/04/01 11:39:02;;;;;;;15.83;10.28;;;;;;;19.63;41.44;99489.28;1782980;80;21070;-62
2021/04/01 11:41:32;;;;;;;14.10;10.65;;;;;;;19.58;41.92;99470.31;1780768;80;21126;-62
2021/04/01 11:44:01;;;;;;;15.95;10.65;;;;;;;19.56;42.17;99462.46;1784400;80;21236;-63
2021/04/01 11:46:31;;;;;;;11.68;9.05;;;;;;;19.56;42.00;99470.65;1783609;80;21216;-62
2021/04/01 11:49:00;;;;;;;15.65;11.43;;;;;;;19.60;41.56;99464.00;1784264;79;21186;-64
2021/04/01 11:51:31;;;;;;;16.70;10.95;;;;;;;19.63;41.39;99467.45;1765947;80;21600;-63
2021/04/01 11:53:59;;;;;;;14.00;10.10;;;;;;;19.70;41.16;99462.91;1734697;82;21203;-62
2021/04/01 11:56:44;;;;;;;13.90;10.95;;;;;;;19.79;40.75;99450.91;1731317;82;23506;-63
2021/04/01 11:59:15;;;;;;;18.98;8.93;;;;;;;19.86;40.34;99452.59;1749708;82;21597;-63
2021/04/01 12:04:36;;;;;;;14.55;7.92;;;;;;;20.14;39.06;99439.52;1889116;76;22667;-65
2021/04/01 12:07:05;;;;;;;11.80;8.23;;;;;;;20.21;38.55;99438.47;1854908;77;21562;-65
2021/04/01 12:09:34;;;;;;;17.23;9.08;;;;;;;20.29;38.38;99435.48;1860069;77;21908;-64
2021/04/01 12:12:04;;;;;;;11.33;7.80;;;;;;;20.40;37.90;99446.38;1824888;77;21651;-65
2021/04/01 12:14:37;;;;;;;11.38;8.55;;;;;;;20.48;37.27;99444.20;1845313;77;20972;-64
2021/04/01 12:17:07;;;;;;;26.12;9.65;;;;;;;20.46;36.26;99432.81;1858267;77;20956;-65
2021/04/01 12:19:35;;;;;;;16.97;8.50;;;;;;;20.44;36.81;99411.27;1860163;77;20995;-64
2021/04/01 12:22:09;;;;;;;18.23;7.75;;;;;;;20.51;36.00;99421.73;1851160;77;21182;-66
2021/04/01 12:24:36;;;;;;;;;;;;;;;20.54;37.02;99415.61;1854568;77;20991;-65
2021/04/01 12:27:06;;;;;;;22.45;10.38;;;;;;;20.62;37.34;99412.65;1851669;77;20127;-64
2021/04/01 12:29:50;;;;;;;10.50;7.30;;;;;;;20.69;36.82;99413.75;1826518;78;21025;-64
2021/04/01 12:32:28;;;;;;;12.35;7.10;;;;;;;20.79;35.74;99413.98;1855702;77;22051;-64
2021/04/01 12:35:11;;;;;;;18.10;9.23;;;;;;;20.96;36.22;99396.16;1859987;77;21350;-68
2021/04/01 12:37:41;;;;;;;10.95;7.62;;;;;;;20.96;36.22;99396.16;1860166;77;25947;-65
2021/04/01 12:40:20;;;;;;;13.40;8.38;;;;;;;21.04;36.38;99398.66;1829054;77;21201;-67
2021/04/01 12:42:49;;;;;;;16.27;8.23;;;;;;;21.08;35.60;99393.58;1838333;77;21536;-65
2021/04/01 12:45:20;;;;;;;12.30;7.12;;;;;;;21.13;34.50;99387.96;1778893;80;21181;-64
2021/04/01 12:47:47;;;;;;;11.75;9.13;;;;;;;21.16;34.84;99372.81;1795411;79;21366;-67
2021/04/01 12:50:16;;;;;;;8.38;7.10;;;;;;;21.21;35.19;99367.17;1788238;79;21144;-64
2021/04/01 12:52:51;;;;;;;15.63;8.30;;;;;;;21.32;34.92;99376.63;1813485;78;21097;-65
2021/04/01 12:55:38;;;;;;;9.50;7.33;;;;;;;21.49;34.98;99379.83;1784352;80;21058;-65
2021/04/01 12:58:02;;;;;;;9.60;7.15;;;;;;;21.59;34.58;99367.95;1783617;80;21169;-67
2021/04/01 13:00:41;;;;;;;18.95;7.37;;;;;;;21.70;34.77;99367.82;1777984;80;21215;-68
2021/04/01 13:03:00;;;;;;;18.05;9.15;;;;;;;21.64;34.56;99353.27;1787843;79;21356;-64
2021/04/01 13:05:28;;;;;;;10.93;7.80;;;;;;;21.54;35.16;99355.83;1764039;80;21022;-62
2021/04/01 13:10:39;;;;;;;17.20;6.47;;;;;;;21.61;34.45;99344.37;1770456;81;21173;-66
2021/04/01 13:13:09;;;;;;;9.13;6.78;;;;;;;21.73;34.19;99337.59;1785645;78;22212;-65
2021/04/01 13:15:39;;;;;;;11.08;5.62;;;;;;;21.86;33.86;99334.39;1763436;80;21019;-63
2021/04/01 13:18:09;;;;;;;9.63;7.33;;;;;;;21.95;33.36;99332.41;1777507;80;21114;-63
2021/04/01 13:20:36;;;;;;;12.23;7.50;;;;;;;22.01;33.79;99325.05;1782292;80;21169;-63
2021/04/01 13:25:36;;;;;;;17.57;7.45;;;;;;;22.30;33.15;99320.61;1790064;80;21375;-67